Time;durP1;ratioP1;P1;durP2;ratioP2;P2;SDS_P1;SDS_P2;PMS_P1;PMS_P2;Temp;Humidity;BMP_temperature;BMP_pressure;BME280_temperature;BME280_humidity;BME280_pressure;Samples;Min_cycle;Max_cycle;Signal;HPM_P1;HPM_P2
2023/06/17 00:00:33;;;;;;;;;31.80;30.60;;;;;15.61;75.26;98828.78;4960880;28;8917;-90
2023/06/17 00:03:22;;;;;;;;;34.00;30.00;;;;;15.64;75.37;98832.13;4970217;28;8878;-91
2023/06/17 00:05:54;;;;;;;;;37.40;33.80;;;;;15.23;77.64;98835.09;4961970;28;8882;-91
2023/06/17 00:08:23;;;;;;;;;43.80;36.40;;;;;15.22;78.17;98835.16;4941267;29;8941;-92
2023/06/17 00:10:53;;;;;;;;;33.20;29.80;;;;;15.37;77.59;98828.22;4939689;28;8854;-90
2023/06/17 00:13:25;;;;;;;;;34.00;32.40;;;;;15.06;79.49;98832.47;4957509;28;8953;-91
2023/06/17 00:15:56;;;;;;;;;34.80;32.00;;;;;15.23;78.79;98828.97;4954389;28;8989;-90
2023/06/17 00:18:26;;;;;;;;;32.80;30.80;;;;;15.23;78.88;98821.88;4941671;28;8865;-90
2023/06/17 00:20:57;;;;;;;;;35.00;32.40;;;;;15.23;79.18;98826.31;4944005;28;8857;-91
2023/06/17 00:23:30;;;;;;;;;39.80;34.20;;;;;15.00;80.42;98833.63;4943488;28;8880;-90
2023/06/17 00:25:59;;;;;;;;;35.80;32.80;;;;;15.18;79.75;98830.97;4946316;28;8914;-90
2023/06/17 00:28:30;;;;;;;;;36.80;33.60;;;;;15.14;79.82;98835.56;4997991;28;8959;-91
2023/06/17 00:31:01;;;;;;;;;39.20;33.60;;;;;15.24;79.54;98830.66;4997291;28;8865;-89
2023/06/17 00:33:31;;;;;;;;;39.60;34.60;;;;;15.25;79.47;98827.94;4996756;28;8939;-90
2023/06/17 00:36:03;;;;;;;;;37.00;34.00;;;;;15.41;78.86;98827.13;4997628;28;8938;-89
2023/06/17 00:38:33;;;;;;;;;39.80;35.40;;;;;15.52;78.12;98830.06;4961396;28;8984;-92
2023/06/17 00:41:02;;;;;;;;;38.80;34.40;;;;;15.52;78.08;98834.53;4998540;28;8870;-90
2023/06/17 00:43:34;;;;;;;;;41.60;35.80;;;;;15.47;78.49;98828.59;4982941;28;8971;-89
2023/06/17 00:46:03;;;;;;;;;41.20;34.60;;;;;15.46;78.52;98830.41;4985555;28;8951;-89
2023/06/17 00:48:34;;;;;;;;;33.20;31.20;;;;;15.19;79.95;98825.59;4974398;28;8965;-88
2023/06/17 00:51:04;;;;;;;;;37.60;33.00;;;;;15.19;80.08;98825.59;4988234;28;8849;-89
2023/06/17 00:53:34;;;;;;;;;40.40;33.60;;;;;15.42;78.99;98824.41;4976261;28;8860;-90
2023/06/17 00:56:04;;;;;;;;;38.80;33.40;;;;;15.43;78.50;98817.31;5025927;28;8888;-88
2023/06/17 00:58:36;;;;;;;;;40.80;34.40;;;;;15.34;79.80;98818.66;4990889;28;8880;-92
2023/06/17 01:01:05;;;;;;;;;39.00;35.00;;;;;15.50;79.02;98816.06;5006864;28;8893;-89
2023/06/17 01:03:36;;;;;;;;;45.25;38.50;;;;;15.28;79.96;98824.25;4981591;28;9105;-91
2023/06/17 01:06:17;;;;;;;;;43.25;37.00;;;;;15.25;80.62;98825.28;4981993;28;8885;-88
2023/06/17 01:08:57;;;;;;;;;40.00;35.75;;;;;15.17;80.78;98824.84;4982203;28;8849;-90
2023/06/17 01:11:27;;;;;;;;;45.25;37.25;;;;;15.15;81.01;98824.06;4994268;28;8861;-88
2023/06/17 01:13:59;;;;;;;;;49.75;40.00;;;;;15.24;80.50;98828.00;4997304;28;8960;-91
2023/06/17 01:16:32;;;;;;;;;38.75;34.00;;;;;15.39;80.09;98823.72;4987129;28;9031;-91
2023/06/17 01:19:05;;;;;;;;;42.75;35.25;;;;;15.24;80.31;98834.19;4980100;28;8938;-90
2023/06/17 01:21:37;;;;;;;;;42.20;37.00;;;;;15.23;78.72;98832.44;4979025;28;8857;-91
2023/06/17 01:24:07;;;;;;;;;35.00;32.20;;;;;15.34;78.21;98821.31;4994461;28;8959;-91
2023/06/17 01:26:40;;;;;;;;;38.60;33.60;;;;;15.50;77.57;98825.81;4978537;28;8893;-88
2023/06/17 01:29:13;;;;;;;;;35.80;33.40;;;;;15.60;76.41;98827.03;4977134;28;8837;-89
2023/06/17 01:31:48;;;;;;;;;34.00;30.80;;;;;15.87;74.87;98818.53;4988365;28;8866;-87
2023/06/17 01:34:23;;;;;;;;;35.00;32.80;;;;;15.87;74.94;98821.19;4986844;28;8965;-89
2023/06/17 01:36:57;;;;;;;;;37.40;34.00;;;;;15.71;74.97;98819.38;4981415;28;8927;-89
2023/06/17 01:39:28;;;;;;;;;35.80;33.20;;;;;15.83;75.20;98816.06;4994752;28;8919;-91
2023/06/17 01:42:02;;;;;;;;;36.60;33.40;;;;;15.89;74.85;98822.84;4978209;28;8938;-92
2023/06/17 01:44:35;;;;;;;;;32.20;30.40;;;;;15.76;75.21;98817.34;4955361;29;8951;-90
2023/06/17 01:47:09;;;;;;;;;38.40;33.00;;;;;15.85;74.72;98823.94;4957638;28;8869;-90
2023/06/17 01:49:39;;;;;;;;;33.20;31.80;;;;;15.86;74.95;98817.69;4944532;29;8994;-87
2023/06/17 01:52:11;;;;;;;;;33.00;30.40;;;;;15.78;75.19;98820.75;4939261;29;8879;-89
2023/06/17 01:54:44;;;;;;;;;34.40;31.20;;;;;16.03;73.58;98830.03;4931740;29;8857;-90
2023/06/17 01:57:15;;;;;;;;;40.00;33.40;;;;;15.95;74.13;98837.56;4902257;29;8881;-88
2023/06/17 01:59:46;;;;;;;;;30.80;29.60;;;;;16.00;73.36;98832.84;4917484;29;9575;-90
2023/06/17 02:02:16;;;;;;;;;38.00;32.00;;;;;16.13;72.51;98836.53;4912739;29;8867;-89
2023/06/17 02:04:50;;;;;;;;;28.00;27.20;;;;;16.15;72.40;98829.38;4929399;29;8854;-89
2023/06/17 02:07:25;;;;;;;;;31.40;27.80;;;;;16.38;71.19;98837.84;4931540;29;8885;-88
2023/06/17 02:09:54;;;;;;;;;29.60;28.60;;;;;16.26;71.05;98839.34;4914554;29;8853;-88
2023/06/17 02:12:26;;;;;;;;;27.00;26.40;;;;;16.52;70.40;98829.13;4869874;29;8889;-90
2023/06/17 02:14:56;;;;;;;;;26.00;25.40;;;;;16.06;71.54;98835.16;4903851;29;8945;-90
2023/06/17 02:17:27;;;;;;;;;29.60;27.60;;;;;16.29;70.44;98838.34;4917493;29;8867;-88
2023/06/17 02:19:58;;;;;;;;;32.00;28.20;;;;;16.08;70.99;98841.25;4953320;28;8873;-90
2023/06/17 02:22:28;;;;;;;;;24.60;23.20;;;;;16.30;69.84;98832.94;5005576;28;8879;-91
2023/06/17 02:24:58;;;;;;;;;27.40;24.60;;;;;16.58;69.11;98840.22;4962865;28;8845;-91
2023/06/17 02:27:29;;;;;;;;;27.60;24.60;;;;;16.80;68.18;98837.19;4961929;28;8872;-89
2023/06/17 02:30:00;;;;;;;;;23.40;22.20;;;;;16.77;68.37;98839.16;4987963;28;8910;-90
2023/06/17 02:32:32;;;;;;;;;25.60;24.80;;;;;16.79;68.12;98845.25;4978170;28;8886;-88
2023/06/17 02:35:03;;;;;;;;;29.80;26.40;;;;;16.90;67.55;98841.97;4966804;28;8855;-91
2023/06/17 02:37:32;;;;;;;;;25.60;24.00;;;;;16.92;67.76;98842.72;5001434;28;8847;-89
2023/06/17 02:40:05;;;;;;;;;25.60;25.60;;;;;16.90;67.73;98841.97;5001327;28;9028;-90
2023/06/17 02:42:56;;;;;;;;;29.00;26.00;;;;;16.61;68.93;98845.34;4998503;28;8892;-89
2023/06/17 02:45:27;;;;;;;;;23.60;23.60;;;;;16.50;69.52;98842.47;4980618;28;8848;-90
2023/06/17 02:47:58;;;;;;;;;23.60;23.40;;;;;16.41;70.16;98842.94;4964944;28;9621;-91
2023/06/17 02:50:31;;;;;;;;;29.00;26.60;;;;;16.53;69.72;98837.00;4964890;28;8844;-89
2023/06/17 02:53:00;;;;;;;;;28.40;25.80;;;;;16.18;71.37;98844.25;4996504;28;8903;-91
2023/06/17 02:55:32;;;;;;;;;29.20;28.00;;;;;16.03;72.01;98844.13;4941846;28;8888;-89
2023/06/17 02:58:14;;;;;;;;;29.20;26.60;;;;;16.30;70.91;98840.03;4958931;28;8937;-89
2023/06/17 03:00:47;;;;;;;;;34.80;30.60;;;;;16.21;70.71;98838.78;4976182;28;8897;-90
2023/06/17 03:03:16;;;;;;;;;28.80;28.20;;;;;16.30;70.49;98848.00;4915012;28;8858;-91
2023/06/17 03:05:47;;;;;;;;;26.80;24.40;;;;;15.99;71.47;98852.34;4941865;28;8999;-93
2023/06/17 03:08:18;;;;;;;;;29.00;24.80;;;;;16.24;70.98;98851.84;4941088;28;8873;-90
2023/06/17 03:10:49;;;;;;;;;29.20;28.20;;;;;16.12;71.50;98857.84;4938336;28;8861;-93
2023/06/17 03:13:39;;;;;;;;;26.60;24.80;;;;;16.42;69.64;98849.97;4956814;28;8996;-89
2023/06/17 03:16:19;;;;;;;;;29.80;27.40;;;;;16.34;69.87;98854.84;4955866;28;8874;-90
2023/06/17 03:18:48;;;;;;;;;30.60;29.80;;;;;16.57;68.98;98851.78;4939257;28;8981;-90
2023/06/17 03:21:18;;;;;;;;;26.60;25.00;;;;;16.73;68.11;98856.22;4954562;28;8985;-88
2023/06/17 03:23:48;;;;;;;;;25.60;25.20;;;;;16.78;67.98;98855.00;4944134;28;8938;-88
2023/06/17 03:26:22;;;;;;;;;27.00;23.40;;;;;16.47;68.13;98855.03;4972982;28;8878;-89
2023/06/17 03:28:53;;;;;;;;;28.20;26.20;;;;;16.49;68.77;98850.50;4984909;28;8874;-87
2023/06/17 03:31:23;;;;;;;;;29.20;27.40;;;;;16.38;68.95;98859.06;4983965;28;8866;-87
2023/06/17 03:33:55;;;;;;;;;25.80;24.60;;;;;16.25;69.42;98865.94;4968541;28;8920;-90
2023/06/17 03:36:28;;;;;;;;;27.80;27.60;;;;;16.17;69.87;98869.03;4998699;28;8850;-88
2023/06/17 03:38:58;;;;;;;;;20.20;20.20;;;;;16.68;67.81;98868.88;4982602;28;8889;-86
2023/06/17 03:41:34;;;;;;;;;21.00;20.60;;;;;16.46;68.19;98859.50;4981825;28;8876;-89
2023/06/17 03:44:04;;;;;;;;;25.80;25.60;;;;;16.42;68.74;98872.03;5018201;28;8990;-91
2023/06/17 03:46:34;;;;;;;;;24.60;23.60;;;;;16.72;67.42;98868.63;4985205;28;8933;-90
2023/06/17 03:49:04;;;;;;;;;25.40;25.40;;;;;16.97;65.79;98872.53;5016590;28;8834;-89
2023/06/17 03:51:34;;;;;;;;;25.80;24.20;;;;;17.11;64.42;98877.03;5032407;28;8878;-88
2023/06/17 03:54:03;;;;;;;;;20.80;20.20;;;;;16.86;65.37;98866.97;4967765;28;8878;-89
2023/06/17 03:56:37;;;;;;;;;41.20;34.80;;;;;17.28;63.91;98868.09;5025527;28;8834;-87
2023/06/17 03:59:11;;;;;;;;;19.60;19.60;;;;;17.58;62.20;98871.53;4987667;28;9899;-89
2023/06/17 04:01:41;;;;;;;;;22.00;20.00;;;;;17.13;62.82;98881.28;4988105;28;8921;-89
2023/06/17 04:04:11;;;;;;;;;24.20;21.40;;;;;17.31;62.76;98863.44;4984090;28;8915;-89
2023/06/17 04:06:42;;;;;;;;;19.00;17.80;;;;;17.25;62.22;98869.13;4998437;28;8996;-89
2023/06/17 04:09:13;;;;;;;;;20.40;20.40;;;;;17.48;61.18;98864.25;4981794;28;8854;-90
2023/06/17 04:11:43;;;;;;;;;21.40;20.00;;;;;17.53;60.89;98865.69;4980622;28;8956;-91
2023/06/17 04:14:15;;;;;;;;;20.20;19.40;;;;;17.73;58.74;98867.09;4961462;28;8832;-90
2023/06/17 04:16:44;;;;;;;;;17.40;16.80;;;;;17.38;59.83;98874.53;4969372;28;8883;-90
2023/06/17 04:19:17;;;;;;;;;21.80;19.80;;;;;17.80;59.07;98875.56;4954077;28;8877;-89
2023/06/17 04:21:48;;;;;;;;;20.20;19.60;;;;;18.08;57.98;98873.84;4972092;28;8877;-88
2023/06/17 04:24:20;;;;;;;;;20.40;19.60;;;;;18.48;57.88;98874.00;4959667;28;8935;-89
2023/06/17 04:26:52;;;;;;;;;18.60;17.80;;;;;18.61;56.09;98876.69;4964388;28;8859;-88
2023/06/17 04:29:29;;;;;;;;;16.20;16.20;;;;;18.77;55.80;98879.22;4975463;28;8865;-87
2023/06/17 04:32:01;;;;;;;;;19.40;18.40;;;;;19.00;54.64;98883.91;4972377;28;8884;-88
2023/06/17 04:34:33;;;;;;;;;19.40;19.40;;;;;18.94;54.69;98877.19;4900378;28;8860;-90
2023/06/17 04:37:02;;;;;;;;;24.00;20.40;;;;;19.35;54.12;98878.03;4973320;28;8979;-88
2023/06/17 04:39:34;;;;;;;;;15.20;15.20;;;;;19.15;53.05;98881.19;4973485;28;9014;-88
2023/06/17 04:42:06;;;;;;;;;19.00;17.20;;;;;19.20;53.31;98881.75;4952022;29;8944;-88
2023/06/17 04:44:38;;;;;;;;;32.00;30.00;;;;;19.36;52.46;98884.22;4966868;29;8882;-88
2023/06/17 04:47:12;;;;;;;;;20.40;20.40;;;;;19.55;52.35;98890.00;4971195;28;8886;-89
2023/06/17 04:49:44;;;;;;;;;20.00;20.00;;;;;19.41;52.02;98893.59;4957383;28;9026;-90
2023/06/17 04:52:19;;;;;;;;;13.60;12.80;;;;;19.23;51.97;98892.19;4957188;28;8856;-87
2023/06/17 04:55:11;;;;;;;;;13.60;13.60;;;;;19.51;51.90;98899.16;4909087;29;8875;-88
2023/06/17 04:57:42;;;;;;;;;19.40;18.80;;;;;19.53;51.67;98897.25;4924756;29;8867;-90
2023/06/17 05:00:21;;;;;;;;;16.00;16.00;;;;;19.68;52.28;98906.03;4953636;28;8832;-88
2023/06/17 05:02:53;;;;;;;;;15.20;15.20;;;;;19.48;52.06;98905.56;4931508;28;8855;-88
2023/06/17 05:05:24;;;;;;;;;15.20;15.20;;;;;19.58;51.59;98902.28;4959747;28;8863;-89
2023/06/17 05:07:54;;;;;;;;;16.20;15.00;;;;;19.12;52.39;98909.75;4939740;28;8884;-90
2023/06/17 05:10:23;;;;;;;;;14.80;13.80;;;;;19.48;52.69;98899.34;4924501;28;8965;-88
2023/06/17 05:12:54;;;;;;;;;20.20;16.20;;;;;19.59;51.94;98910.16;4939673;28;8865;-91
2023/06/17 05:15:25;;;;;;;;;16.60;16.60;;;;;19.74;51.47;98908.25;4916919;28;8849;-88
2023/06/17 05:17:56;;;;;;;;;15.60;14.80;;;;;19.36;52.45;98913.53;4955942;28;8869;-89
2023/06/17 05:20:27;;;;;;;;;16.00;14.60;;;;;19.59;51.40;98918.16;4940626;28;8869;-91
2023/06/17 05:23:00;;;;;;;;;16.20;14.20;;;;;19.60;51.35;98919.88;4942591;28;8987;-90
2023/06/17 05:25:56;;;;;;;;;14.40;14.20;;;;;19.69;48.70;98908.59;4938357;29;8845;-92
2023/06/17 05:28:26;;;;;;;;;17.80;15.00;;;;;19.15;50.81;98915.81;4904749;29;8883;-93
2023/06/17 05:30:58;;;;;;;;;11.80;11.80;;;;;19.66;49.69;98918.59;4908999;29;8841;-89
2023/06/17 05:33:30;;;;;;;;;14.80;14.80;;;;;19.80;48.79;98921.19;4893333;29;8863;-91
2023/06/17 05:36:00;;;;;;;;;14.40;14.20;;;;;20.02;48.33;98917.00;4950063;29;8895;-90
2023/06/17 05:38:34;;;;;;;;;14.20;14.00;;;;;20.13;48.16;98926.94;4938504;29;8878;-90
2023/06/17 05:41:07;;;;;;;;;14.60;13.60;;;;;20.32;48.09;98929.19;4908781;29;8881;-91
2023/06/17 05:46:23;;;;;;;;;12.00;12.00;;;;;20.42;47.16;98932.88;4894722;29;9043;-91
2023/06/17 05:49:11;;;;;;;;;14.40;13.60;;;;;20.46;47.37;98940.56;4902766;29;8877;-92
2023/06/17 05:51:44;;;;;;;;;12.20;12.20;;;;;20.65;46.19;98939.22;4890187;29;8907;-90
2023/06/17 05:56:59;;;;;;;;;20.00;17.40;;;;;20.87;44.36;98944.72;4894820;29;8881;-90
2023/06/17 05:59:48;;;;;;;;;15.60;15.00;;;;;20.75;44.13;98947.44;4885906;29;8871;-90
2023/06/17 06:02:20;;;;;;;;;13.00;10.20;;;;;20.55;44.41;98951.56;4938420;28;8853;-90
2023/06/17 06:04:51;;;;;;;;;16.40;16.40;;;;;20.23;45.59;98952.88;4984980;28;8859;-90
2023/06/17 06:07:20;;;;;;;;;13.60;13.60;;;;;20.18;45.40;98959.47;4966262;28;8845;-91
2023/06/17 06:10:10;;;;;;;;;15.80;14.40;;;;;19.74;47.00;98955.41;4965566;28;8851;-91
2023/06/17 06:13:04;;;;;;;;;13.00;12.80;;;;;19.96;46.95;98955.63;4893013;29;9010;-89
2023/06/17 06:15:59;;;;;;;;;12.00;12.00;;;;;19.67;46.24;98949.66;4929418;29;8866;-87
2023/06/17 06:19:13;;;;;;;;;13.60;11.80;;;;;18.63;47.79;98960.84;4892142;29;9012;-88
2023/06/17 06:22:00;;;;;;;;;12.00;12.00;;;;;18.24;49.73;98961.56;4888374;29;8858;-88
2023/06/17 06:24:33;;;;;;;;;12.60;12.60;;;;;18.08;50.03;98962.50;4854388;29;8882;-88
2023/06/17 06:27:08;;;;;;;;;15.20;14.00;;;;;18.21;49.56;98962.56;4873223;29;8904;-89
2023/06/17 06:29:41;;;;;;;;;14.00;13.80;;;;;18.41;49.22;98963.16;4913938;29;8898;-88
2023/06/17 06:32:16;;;;;;;;;13.60;13.20;;;;;18.28;49.13;98965.72;4923446;29;8964;-88
2023/06/17 06:35:12;;;;;;;;;15.40;14.40;;;;;18.47;49.76;98970.75;4918493;29;9731;-90
2023/06/17 06:37:51;;;;;;;;;15.60;14.20;;;;;18.34;50.85;98963.53;4914472;28;8887;-89
2023/06/17 06:40:24;;;;;;;;;16.80;15.80;;;;;18.77;50.45;98961.78;4957952;28;8887;-88
2023/06/17 06:42:55;;;;;;;;;15.80;15.60;;;;;18.54;51.04;98967.59;4951048;28;8907;-90
2023/06/17 06:46:04;;;;;;;;;19.20;17.80;;;;;18.07;53.07;98973.22;4892674;29;8871;-90
2023/06/17 06:48:55;;;;;;;;;19.80;19.80;;;;;18.79;51.67;98970.56;4892713;29;8959;-89
2023/06/17 06:51:43;;;;;;;;;17.80;16.00;;;;;18.67;51.99;98969.50;4844773;29;9848;-88
2023/06/17 06:54:13;;;;;;;;;20.40;18.20;;;;;18.99;53.14;98975.44;4862739;29;8875;-88
2023/06/17 06:56:49;;;;;;;;;20.00;19.60;;;;;19.46;52.27;98975.91;4963521;23;8877;-89
2023/06/17 07:06:17;;;;;;;;;22.80;20.00;;;;;20.18;50.07;98979.03;4944003;28;8889;-89
2023/06/17 07:17:17;;;;;;;;;32.80;29.20;;;;;20.58;52.12;98986.06;4838777;29;8955;-91
2023/06/17 07:26:08;;;;;;;;;40.20;34.40;;;;;20.39;52.65;98995.38;4818450;29;8894;-88
2023/06/17 07:28:40;;;;;;;;;39.00;32.00;;;;;20.20;53.58;98995.78;4798912;29;9027;-90
2023/06/17 07:31:48;;;;;;;;;38.60;34.00;;;;;20.77;52.30;98991.78;4823514;29;9738;-88
2023/06/17 07:34:50;;;;;;;;;40.00;35.75;;;;;19.93;53.25;98987.00;4824695;29;9067;-89
2023/06/17 07:37:23;;;;;;;;;32.60;32.00;;;;;20.27;52.42;98986.41;4808031;29;8901;-89
2023/06/17 07:40:04;;;;;;;;;30.00;29.40;;;;;20.63;51.43;98984.75;4816538;29;8992;-90
2023/06/17 07:52:54;;;;;;;;;29.20;29.20;;;;;20.68;51.61;98992.44;4778720;29;8897;-89
2023/06/17 07:55:24;;;;;;;;;28.60;27.40;;;;;20.16;51.99;98991.63;4770603;29;9085;-88
2023/06/17 07:58:11;;;;;;;;;31.60;30.20;;;;;19.97;53.53;98993.84;4762135;30;8911;-89
2023/06/17 08:03:44;;;;;;;;;28.60;27.40;;;;;19.54;54.61;98984.28;4742553;30;8870;-89
2023/06/17 08:06:44;;;;;;;;;30.20;27.20;;;;;20.35;52.58;98987.66;4753763;30;8893;-88
2023/06/17 08:12:17;;;;;;;;;26.40;25.60;;;;;18.96;53.79;99002.25;4776636;29;8866;-89
2023/06/17 08:14:46;;;;;;;;;24.60;24.60;;;;;19.05;53.33;99004.34;4793889;29;8969;-88
2023/06/17 08:18:25;;;;;;;;;28.40;26.60;;;;;19.54;52.65;98999.41;4732344;30;8912;-90
2023/06/17 08:21:13;;;;;;;;;23.80;22.60;;;;;18.81;55.66;99009.44;4728768;30;8895;-89
2023/06/17 08:23:51;;;;;;;;;21.20;20.40;;;;;19.11;52.38;99009.25;4729256;30;9008;-88
2023/06/17 08:26:28;;;;;;;;;25.40;25.40;;;;;19.78;51.32;99007.56;4728436;30;8900;-87
2023/06/17 08:29:03;;;;;;;;;24.80;24.60;;;;;18.90;52.47;99015.97;4753339;30;8916;-86
2023/06/17 08:32:09;;;;;;;;;27.60;26.60;;;;;19.45;51.65;99001.72;4769944;30;9014;-88
2023/06/17 08:35:05;;;;;;;;;29.80;28.20;;;;;19.76;50.83;99005.00;4765807;29;8878;-88
2023/06/17 08:37:40;;;;;;;;;31.00;30.20;;;;;19.31;52.99;99009.78;4845968;29;8890;-88
2023/06/17 08:40:19;;;;;;;;;29.60;25.60;;;;;19.22;53.29;99010.38;4908576;29;8881;-88
2023/06/17 08:43:02;;;;;;;;;27.40;26.80;;;;;19.64;51.03;99013.84;4912109;29;8873;-87
2023/06/17 08:45:35;;;;;;;;;35.40;30.80;;;;;20.09;50.06;99015.19;4879756;29;9605;-88
2023/06/17 08:48:29;;;;;;;;;29.20;28.40;;;;;19.79;52.54;99012.81;4887656;29;8910;-88
2023/06/17 08:51:00;;;;;;;;;28.80;27.80;;;;;19.60;53.23;99015.88;4914528;29;8879;-89
2023/06/17 08:53:41;;;;;;;;;28.80;28.00;;;;;19.77;52.52;99017.41;4915056;29;9076;-85
2023/06/17 08:56:41;;;;;;;;;41.40;34.20;;;;;20.32;51.91;99014.59;4937133;28;8990;-87
2023/06/17 09:02:22;;;;;;;;;30.40;27.60;;;;;19.44;53.33;99017.81;4876236;29;8866;-89
2023/06/17 09:05:08;;;;;;;;;30.60;29.20;;;;;19.68;54.13;99016.19;4901488;29;9032;-87
2023/06/17 09:07:38;;;;;;;;;32.40;31.40;;;;;20.21;53.34;99018.81;4899064;29;9109;-87
2023/06/17 09:10:11;;;;;;;;;30.40;28.60;;;;;20.23;53.41;99016.91;4882047;29;8872;-87
2023/06/17 09:12:43;;;;;;;;;37.00;33.80;;;;;19.98;54.75;99017.75;4884630;29;8896;-86
2023/06/17 09:15:19;;;;;;;;;31.80;30.20;;;;;20.50;54.02;99021.31;4887622;29;9656;-85
2023/06/17 09:18:11;;;;;;;;;35.40;32.80;;;;;20.90;52.74;99015.78;4911282;29;8875;-86
2023/06/17 09:20:42;;;;;;;;;35.80;32.80;;;;;21.43;51.60;99012.81;4923676;29;8887;-86
2023/06/17 09:23:18;;;;;;;;;32.40;31.00;;;;;21.41;51.02;99014.78;4916932;29;8867;-85
2023/06/17 09:25:52;;;;;;;;;33.20;30.80;;;;;21.55;50.40;99014.56;4913864;29;9026;-86
2023/06/17 09:28:30;;;;;;;;;36.40;33.40;;;;;21.78;49.42;99017.34;4893969;29;8891;-85
2023/06/17 09:31:05;;;;;;;;;38.40;33.80;;;;;22.12;48.35;99007.56;4881381;29;9054;-86
2023/06/17 09:34:03;;;;;;;;;37.40;32.60;;;;;21.69;49.50;99013.53;4851420;29;8848;-85
2023/06/17 09:37:44;;;;;;;;;33.40;31.80;;;;;21.68;49.61;99021.72;4799066;29;8946;-86
2023/06/17 09:40:39;;;;;;;;;31.00;29.00;;;;;21.71;49.17;99016.97;4783960;29;8894;-86
2023/06/17 09:43:13;;;;;;;;;30.40;29.60;;;;;20.86;51.08;99020.50;4791779;29;8921;-85
2023/06/17 09:48:53;;;;;;;;;27.80;25.60;;;;;21.14;50.46;99029.19;4741019;30;8906;-88
2023/06/17 09:51:36;;;;;;;;;30.40;30.20;;;;;20.73;51.91;99029.47;4751395;30;8897;-88
2023/06/17 09:57:14;;;;;;;;;26.40;25.40;;;;;20.38;52.60;99036.34;4763522;30;8926;-86
2023/06/17 09:59:50;;;;;;;;;33.60;31.80;;;;;20.85;52.00;99036.63;4787630;29;8866;-86
2023/06/17 10:02:23;;;;;;;;;31.80;31.00;;;;;20.55;52.02;99039.66;4778127;30;9041;-87
2023/06/17 10:04:55;;;;;;;;;34.00;32.40;;;;;20.57;52.09;99037.75;4805757;29;9756;-88
2023/06/17 10:07:32;;;;;;;;;31.40;29.80;;;;;20.87;52.43;99037.38;4848502;29;8872;-86
2023/06/17 10:10:05;;;;;;;;;31.40;31.00;;;;;21.06;51.63;99042.25;4824279;29;9038;-85
2023/06/17 10:12:40;;;;;;;;;32.00;30.20;;;;;21.38;49.89;99037.22;4881411;29;8855;-85
2023/06/17 10:15:11;;;;;;;;;32.40;31.00;;;;;20.27;52.52;99042.47;4903419;29;8911;-87
2023/06/17 10:17:51;;;;;;;;;26.40;26.40;;;;;20.72;51.57;99039.31;4892335;29;8837;-87
2023/06/17 10:20:45;;;;;;;;;31.20;30.60;;;;;21.10;51.27;99042.91;4891674;29;8887;-86
2023/06/17 10:23:17;;;;;;;;;29.80;28.80;;;;;21.33;50.97;99039.38;4828607;29;8877;-87
2023/06/17 10:25:50;;;;;;;;;27.00;26.80;;;;;21.35;50.72;99037.47;4901291;29;8900;-87
2023/06/17 10:28:23;;;;;;;;;30.40;30.40;;;;;21.31;51.12;99038.63;4887683;29;8895;-88
2023/06/17 10:30:57;;;;;;;;;28.40;27.40;;;;;21.32;51.39;99036.84;4909719;29;8852;-86
2023/06/17 10:33:55;;;;;;;;;31.80;30.60;;;;;21.23;50.06;99041.03;4925515;29;8877;-86
2023/06/17 10:36:29;;;;;;;;;28.60;27.40;;;;;21.17;49.80;99045.00;4923057;29;8950;-86
2023/06/17 10:39:18;;;;;;;;;27.20;26.80;;;;;21.12;50.73;99046.31;4864167;29;8985;-87
2023/06/17 10:41:55;;;;;;;;;28.00;27.00;;;;;20.51;52.42;99044.38;4934783;29;8878;-85
2023/06/17 10:44:44;;;;;;;;;26.00;25.40;;;;;20.97;51.39;99040.25;4940102;29;8863;-87
2023/06/17 10:47:23;;;;;;;;;32.20;29.60;;;;;21.33;50.69;99042.03;4962350;28;8894;-87
2023/06/17 10:49:56;;;;;;;;;30.80;28.00;;;;;21.74;49.92;99035.47;4940565;28;8890;-86
2023/06/17 10:52:32;;;;;;;;;28.60;27.60;;;;;22.00;48.22;99036.16;4924965;28;9835;-87
2023/06/17 10:55:05;;;;;;;;;27.20;25.20;;;;;20.86;50.60;99054.38;4953828;28;8976;-85
2023/06/17 10:57:51;;;;;;;;;35.00;32.40;;;;;20.51;51.91;99038.19;4934811;28;8973;-85
2023/06/17 11:00:22;;;;;;;;;31.40;30.60;;;;;20.47;51.44;99045.53;4975660;28;8977;-85
2023/06/17 11:03:06;;;;;;;;;30.00;27.80;;;;;21.49;50.06;99046.28;4975158;28;8993;-85
2023/06/17 11:05:37;;;;;;;;;27.00;26.60;;;;;21.10;49.35;99045.56;4943627;28;8879;-87
2023/06/17 11:08:09;;;;;;;;;31.40;28.00;;;;;21.30;49.50;99042.28;4953760;28;8871;-86
2023/06/17 11:10:38;;;;;;;;;27.00;26.40;;;;;21.51;49.43;99047.00;4939364;28;8887;-87
2023/06/17 11:13:08;;;;;;;;;24.20;23.60;;;;;21.76;47.60;99038.03;4922772;28;8847;-86
2023/06/17 11:15:37;;;;;;;;;37.00;33.60;;;;;21.39;47.82;99044.28;4903775;28;8943;-88
2023/06/17 11:18:07;;;;;;;;;25.80;23.60;;;;;21.55;47.52;99045.81;4982107;28;9564;-87
2023/06/17 11:20:39;;;;;;;;;26.00;25.00;;;;;22.11;46.05;99039.81;4981892;28;8850;-87
2023/06/17 11:23:12;;;;;;;;;28.80;27.80;;;;;22.13;45.46;99043.25;4997659;28;8878;-87
2023/06/17 11:25:42;;;;;;;;;28.40;25.00;;;;;22.46;45.12;99042.47;4997111;28;8850;-87
2023/06/17 11:28:15;;;;;;;;;34.40;32.20;;;;;22.23;45.23;99041.56;5012332;28;8831;-88
2023/06/17 11:30:44;;;;;;;;;34.80;30.80;;;;;21.72;46.62;99037.41;5002479;28;8958;-88
2023/06/17 11:33:15;;;;;;;;;31.20;29.40;;;;;21.58;46.61;99045.59;4997826;28;8953;-88
2023/06/17 11:35:48;;;;;;;;;28.00;27.20;;;;;21.84;46.03;99048.97;4997797;28;8862;-86
2023/06/17 11:38:21;;;;;;;;;30.40;29.40;;;;;20.52;50.28;99046.09;5015958;28;8859;-86
2023/06/17 11:40:57;;;;;;;;;27.20;27.00;;;;;21.00;48.97;99048.06;5022240;28;9036;-87
2023/06/17 11:43:28;;;;;;;;;29.60;27.80;;;;;21.40;47.94;99040.63;5013472;28;8957;-83
2023/06/17 11:45:59;;;;;;;;;33.20;31.20;;;;;21.45;47.61;99038.47;5014540;28;8847;-87
2023/06/17 11:48:35;;;;;;;;;26.40;24.60;;;;;21.88;46.63;99034.44;5019845;28;8874;-86
2023/06/17 11:51:06;;;;;;;;;20.00;20.00;;;;;22.25;45.09;99025.38;5010540;28;8952;-87
2023/06/17 11:53:38;;;;;;;;;26.20;26.20;;;;;22.34;44.43;99030.03;5005639;28;8862;-88
2023/06/17 11:56:09;;;;;;;;;26.00;25.00;;;;;21.51;46.38;99033.66;5009282;28;8848;-88
2023/06/17 11:58:41;;;;;;;;;25.00;23.20;;;;;21.42;46.82;99025.31;5047713;28;8879;-86
2023/06/17 12:01:13;;;;;;;;;26.40;22.40;;;;;21.72;46.52;99021.34;4981936;28;8866;-87
2023/06/17 12:03:46;;;;;;;;;24.40;24.40;;;;;21.52;46.15;99030.88;5018650;28;8841;-85
2023/06/17 12:06:19;;;;;;;;;31.40;29.60;;;;;22.01;45.68;99024.50;5018388;28;8837;-86
2023/06/17 12:08:57;;;;;;;;;28.20;26.40;;;;;22.11;45.24;99021.94;4983446;28;8899;-86
2023/06/17 12:11:27;;;;;;;;;25.40;25.40;;;;;21.77;44.85;99011.16;5020381;28;8874;-87
2023/06/17 12:14:08;;;;;;;;;28.60;28.00;;;;;22.18;44.60;99007.13;4999808;28;9627;-86
2023/06/17 12:16:39;;;;;;;;;36.00;27.60;;;;;22.09;44.50;99012.31;4976002;28;8897;-87
2023/06/17 12:19:16;;;;;;;;;34.00;30.00;;;;;21.88;44.10;99010.34;4982313;28;8880;-85
2023/06/17 12:21:46;;;;;;;;;29.40;28.60;;;;;21.74;44.82;99014.06;4985638;28;9609;-86
2023/06/17 12:24:21;;;;;;;;;26.80;26.20;;;;;21.76;45.18;99014.78;4924730;28;8859;-88
2023/06/17 12:26:51;;;;;;;;;28.80;28.20;;;;;22.05;44.95;99017.03;4957818;28;8870;-86
2023/06/17 12:29:26;;;;;;;;;32.60;30.40;;;;;22.02;44.29;99012.78;4965470;28;8867;-86
2023/06/17 12:31:56;;;;;;;;;37.20;34.20;;;;;21.52;45.61;99014.81;4971095;28;8867;-85
2023/06/17 12:34:25;;;;;;;;;30.00;27.80;;;;;21.83;44.86;99016.03;4978101;28;8930;-87
2023/06/17 12:36:56;;;;;;;;;26.40;25.80;;;;;21.34;46.54;99024.22;4956274;28;8879;-86
2023/06/17 12:39:26;;;;;;;;;30.60;28.20;;;;;21.28;46.92;99020.16;4910403;29;8892;-86
2023/06/17 12:42:00;;;;;;;;;28.00;26.00;;;;;21.29;46.87;99018.34;4916986;29;9799;-85
2023/06/17 12:44:35;;;;;;;;;30.60;29.40;;;;;21.70;46.46;99012.59;4913923;29;8857;-85
2023/06/17 12:47:06;;;;;;;;;27.80;26.20;;;;;21.99;45.37;99015.72;4894710;29;8941;-86
2023/06/17 12:50:02;;;;;;;;;25.80;22.40;;;;;22.30;44.41;99020.56;4840427;29;8867;-86
2023/06/17 12:52:34;;;;;;;;;24.00;24.00;;;;;22.50;43.46;99024.31;4841041;29;8898;-85
2023/06/17 12:55:05;;;;;;;;;22.20;22.00;;;;;22.70;42.92;99022.75;4837670;29;8930;-85